Time;durP1;ratioP1;P1;durP2;ratioP2;P2;SDS_P1;SDS_P2;PMS_P1;PMS_P2;Temp;Humidity;BMP_temperature;BMP_pressure;BME280_temperature;BME280_humidity;BME280_pressure;Samples;Min_cycle;Max_cycle;Signal;HPM_P1;HPM_P2
2024/04/09 00:00:32;;;;;;;9.90;2.70;;;16.50;56.00;;;;;;5381913;26;20220;-65
2024/04/09 00:02:58;;;;;;;9.40;3.00;;;16.50;56.20;;;;;;5382229;26;20574;-66
2024/04/09 00:05:31;;;;;;;7.83;2.83;;;16.50;56.10;;;;;;5382229;26;20254;-66
2024/04/09 00:08:01;;;;;;;9.37;3.40;;;16.50;57.50;;;;;;5382154;26;20463;-66
2024/04/09 00:10:30;;;;;;;9.23;3.80;;;16.50;59.60;;;;;;5381745;26;20455;-65
2024/04/09 00:12:58;;;;;;;8.00;2.50;;;16.40;60.80;;;;;;5382117;26;20542;-66
2024/04/09 00:15:24;;;;;;;6.73;2.30;;;16.20;59.50;;;;;;5381890;26;20498;-65
2024/04/09 00:17:56;;;;;;;9.03;2.30;;;16.20;58.90;;;;;;5382027;26;20508;-65
2024/04/09 00:20:24;;;;;;;10.43;3.83;;;16.20;57.40;;;;;;5381779;26;20451;-65
2024/04/09 00:22:54;;;;;;;5.47;1.93;;;16.30;55.90;;;;;;5382064;26;20847;-66
2024/04/09 00:25:24;;;;;;;6.40;2.70;;;16.30;56.90;;;;;;5381977;26;20459;-66
2024/04/09 00:27:53;;;;;;;7.60;2.10;;;16.40;57.90;;;;;;5381727;26;21023;-66
2024/04/09 00:30:21;;;;;;;7.13;2.20;;;16.40;57.30;;;;;;5381541;26;20447;-65
2024/04/09 00:32:51;;;;;;;7.13;2.90;;;16.30;57.70;;;;;;5381920;26;21060;-65
2024/04/09 00:35:17;;;;;;;6.10;2.57;;;16.30;58.80;;;;;;5381752;26;21039;-65
2024/04/09 00:37:42;;;;;;;9.27;3.80;;;16.20;59.30;;;;;;5382005;26;20466;-65
2024/04/09 00:40:13;;;;;;;8.40;2.77;;;16.10;59.50;;;;;;5381351;26;20451;-65
2024/04/09 00:42:39;;;;;;;13.97;4.50;;;16.10;60.10;;;;;;5382265;26;20236;-65
2024/04/09 00:45:05;;;;;;;5.10;2.40;;;16.10;60.40;;;;;;5381808;26;20434;-66
2024/04/09 00:47:34;;;;;;;7.40;2.00;;;16.10;59.60;;;;;;5381024;26;20519;-65
2024/04/09 00:50:04;;;;;;;5.67;2.67;;;16.10;59.20;;;;;;5381240;26;20447;-65
2024/04/09 00:52:33;;;;;;;10.20;2.40;;;16.00;59.30;;;;;;5381718;26;20509;-66
2024/04/09 00:55:03;;;;;;;3.10;2.23;;;16.10;58.70;;;;;;5381756;26;20562;-65
2024/04/09 00:57:29;;;;;;;9.93;2.90;;;16.10;57.90;;;;;;5381336;26;20511;-66
2024/04/09 00:59:56;;;;;;;11.73;2.70;;;16.10;58.00;;;;;;5381161;26;20478;-65
2024/04/09 01:02:23;;;;;;;2.33;1.87;;;16.00;58.50;;;;;;5381422;26;20500;-66
2024/04/09 01:04:52;;;;;;;7.03;2.30;;;15.90;57.50;;;;;;5381547;26;20907;-65
2024/04/09 01:07:17;;;;;;;15.70;3.47;;;15.90;57.60;;;;;;5381209;26;20466;-65
2024/04/09 01:09:43;;;;;;;2.70;1.80;;;16.00;59.10;;;;;;5380872;26;20495;-65
2024/04/09 01:12:09;;;;;;;6.40;2.40;;;16.00;58.90;;;;;;5381342;26;20641;-66
2024/04/09 01:14:34;;;;;;;9.83;3.37;;;16.00;59.00;;;;;;5381276;26;20753;-66
2024/04/09 01:17:00;;;;;;;6.53;2.40;;;16.00;58.10;;;;;;5381334;26;20228;-65
2024/04/09 01:19:26;;;;;;;7.23;2.77;;;15.90;59.30;;;;;;5381204;26;20330;-65
2024/04/09 01:21:53;;;;;;;7.60;2.67;;;15.80;59.90;;;;;;5380932;26;20212;-65
2024/04/09 01:24:20;;;;;;;17.77;2.80;;;15.70;58.90;;;;;;5381113;26;20552;-66
2024/04/09 01:26:49;;;;;;;5.50;2.93;;;15.60;56.60;;;;;;5380869;26;20486;-66
2024/04/09 01:29:15;;;;;;;5.30;3.47;;;15.70;53.60;;;;;;5381054;26;20529;-65
2024/04/09 01:31:40;;;;;;;9.53;4.03;;;16.00;54.60;;;;;;5380868;26;20570;-65
2024/04/09 01:34:09;;;;;;;6.13;2.80;;;16.30;54.30;;;;;;5381005;26;20443;-65
2024/04/09 01:36:35;;;;;;;9.57;4.43;;;16.40;53.70;;;;;;5380668;26;20224;-65
2024/04/09 01:39:01;;;;;;;9.00;5.00;;;16.50;54.20;;;;;;5380967;26;20492;-65
2024/04/09 01:41:26;;;;;;;13.77;3.57;;;16.50;52.90;;;;;;5380707;26;20799;-65
2024/04/09 01:43:52;;;;;;;10.90;3.53;;;16.60;53.30;;;;;;5380991;26;20221;-66
2024/04/09 01:46:18;;;;;;;8.37;2.50;;;16.60;52.60;;;;;;5380809;26;20622;-66
2024/04/09 01:48:44;;;;;;;9.90;3.10;;;16.60;53.10;;;;;;5380887;26;20443;-66
2024/04/09 01:51:11;;;;;;;10.90;2.63;;;16.50;53.40;;;;;;5380549;26;20316;-65
2024/04/09 01:53:40;;;;;;;12.97;4.13;;;16.50;53.90;;;;;;5380828;26;20275;-66
2024/04/09 01:56:06;;;;;;;3.73;2.53;;;16.50;53.80;;;;;;5380524;26;20485;-65
2024/04/09 01:58:31;;;;;;;6.60;2.80;;;16.40;52.70;;;;;;5380735;26;20431;-65
2024/04/09 02:00:57;;;;;;;9.13;2.27;;;16.30;53.40;;;;;;5378913;26;20316;-65
2024/04/09 02:03:25;;;;;;;8.23;3.07;;;16.30;51.70;;;;;;5380629;26;20267;-65
2024/04/09 02:05:51;;;;;;;5.60;3.20;;;16.10;51.70;;;;;;5380532;26;20439;-66
2024/04/09 02:08:17;;;;;;;8.20;2.77;;;16.20;51.40;;;;;;5379457;26;20533;-65
2024/04/09 02:10:42;;;;;;;7.90;3.17;;;16.20;50.80;;;;;;5380557;26;20967;-65
2024/04/09 02:13:08;;;;;;;5.70;2.17;;;16.30;51.30;;;;;;5380758;26;20263;-65
2024/04/09 02:15:34;;;;;;;7.70;3.80;;;16.30;51.40;;;;;;5380253;26;20637;-66
2024/04/09 02:18:01;;;;;;;7.50;2.63;;;16.40;51.60;;;;;;5381288;26;20233;-65
2024/04/09 02:20:29;;;;;;;6.23;2.30;;;16.30;51.20;;;;;;5379995;26;20450;-65
2024/04/09 02:22:54;;;;;;;6.17;3.60;;;16.20;51.30;;;;;;5380410;26;20841;-65
2024/04/09 02:25:21;;;;;;;11.80;2.70;;;16.10;53.10;;;;;;5380320;26;20442;-65
2024/04/09 02:27:47;;;;;;;6.60;2.50;;;16.10;51.90;;;;;;5380282;26;20568;-66
2024/04/09 02:30:13;;;;;;;9.73;3.13;;;16.70;52.50;;;;;;5379928;26;20454;-65
2024/04/09 02:32:38;;;;;;;3.97;1.97;;;16.00;52.50;;;;;;5380253;26;21085;-65
2024/04/09 02:35:10;;;;;;;8.40;2.67;;;16.00;52.20;;;;;;5380087;26;20220;-66
2024/04/09 02:37:36;;;;;;;6.57;2.00;;;16.00;51.80;;;;;;5380080;26;20273;-66
2024/04/09 02:40:04;;;;;;;9.20;2.30;;;15.90;52.20;;;;;;5379670;26;20802;-65
2024/04/09 02:42:30;;;;;;;6.10;2.40;;;15.80;52.50;;;;;;5379980;26;20446;-65
2024/04/09 02:44:55;;;;;;;6.80;1.60;;;15.80;52.70;;;;;;5379901;26;20458;-65
2024/04/09 02:47:21;;;;;;;6.00;2.47;;;15.70;52.50;;;;;;5379814;26;20224;-66
2024/04/09 02:49:47;;;;;;;8.03;2.63;;;15.60;52.90;;;;;;5379592;26;20576;-65
2024/04/09 02:52:13;;;;;;;6.87;2.20;;;15.70;52.90;;;;;;5379916;26;20736;-65
2024/04/09 02:54:41;;;;;;;4.67;2.17;;;15.70;52.80;;;;;;5379750;26;20722;-66
2024/04/09 02:57:07;;;;;;;13.87;2.90;;;15.70;53.30;;;;;;5379734;26;20514;-66
2024/04/09 02:59:33;;;;;;;4.63;1.77;;;15.70;53.70;;;;;;5379282;26;20499;-65
2024/04/09 03:01:59;;;;;;;9.57;1.97;;;15.60;54.60;;;;;;5379832;26;20453;-65
2024/04/09 03:04:25;;;;;;;9.07;3.10;;;15.50;53.90;;;;;;5379637;26;20277;-65
2024/04/09 03:06:50;;;;;;;3.97;2.47;;;15.50;54.10;;;;;;5379585;26;20264;-66
2024/04/09 03:09:16;;;;;;;4.07;2.13;;;15.40;54.60;;;;;;5379339;26;20443;-65
2024/04/09 03:11:42;;;;;;;5.70;2.37;;;15.40;54.80;;;;;;5381331;26;20224;-65
2024/04/09 03:14:11;;;;;;;5.53;2.90;;;15.30;55.40;;;;;;5383172;26;20221;-65
2024/04/09 03:16:37;;;;;;;8.07;3.90;;;15.20;55.60;;;;;;5383140;26;20852;-65
2024/04/09 03:19:05;;;;;;;9.20;3.27;;;15.20;56.00;;;;;;5382892;26;20439;-65
2024/04/09 03:21:31;;;;;;;6.63;2.60;;;15.10;55.60;;;;;;5382697;26;20510;-65
2024/04/09 03:23:57;;;;;;;5.13;2.77;;;15.10;56.00;;;;;;5382700;26;20962;-65
2024/04/09 03:26:22;;;;;;;7.67;2.90;;;15.20;56.40;;;;;;5382771;26;20254;-65
2024/04/09 03:28:48;;;;;;;5.33;2.03;;;15.20;56.00;;;;;;5382576;26;20209;-65
2024/04/09 03:31:13;;;;;;;4.87;2.23;;;15.10;57.60;;;;;;5382838;26;20705;-65
2024/04/09 03:33:39;;;;;;;8.30;2.87;;;15.00;58.10;;;;;;5382940;26;20274;-65
2024/04/09 03:36:07;;;;;;;9.80;3.03;;;15.00;58.20;;;;;;5382585;26;20215;-65
2024/04/09 03:38:33;;;;;;;4.67;3.23;;;15.00;58.10;;;;;;5382637;26;20227;-65
2024/04/09 03:41:01;;;;;;;5.60;2.47;;;15.00;59.00;;;;;;5382413;26;20564;-65
2024/04/09 03:43:27;;;;;;;3.53;2.40;;;15.00;58.30;;;;;;5383167;26;20244;-65
2024/04/09 03:46:06;;;;;;;11.00;3.10;;;15.10;58.40;;;;;;5382572;26;20498;-65
2024/04/09 03:48:43;;;;;;;7.43;2.70;;;15.10;58.70;;;;;;5382499;26;20536;-65
2024/04/09 03:51:13;;;;;;;11.17;2.40;;;15.00;58.50;;;;;;5382475;26;21085;-65
2024/04/09 03:53:39;;;;;;;8.10;2.73;;;14.90;59.10;;;;;;5382271;26;20529;-66
2024/04/09 03:56:09;;;;;;;7.23;2.40;;;14.90;59.40;;;;;;5382310;26;20977;-65
2024/04/09 03:58:38;;;;;;;8.23;2.20;;;14.80;59.70;;;;;;5382201;26;20494;-65
2024/04/09 04:01:05;;;;;;;7.30;2.20;;;14.70;60.80;;;;;;5382183;26;20491;-65
2024/04/09 04:03:32;;;;;;;6.33;3.13;;;14.60;60.40;;;;;;5382573;26;20492;-65
2024/04/09 04:06:00;;;;;;;12.53;4.20;;;14.60;60.60;;;;;;5382314;26;20450;-66
2024/04/09 04:08:38;;;;;;;12.30;2.70;;;14.60;62.10;;;;;;5381950;26;20815;-65
2024/04/09 04:11:05;;;;;;;8.87;2.73;;;14.60;62.50;;;;;;5382042;26;20777;-65
2024/04/09 04:13:32;;;;;;;3.67;2.90;;;14.60;62.60;;;;;;5382249;26;20497;-65
2024/04/09 04:16:07;;;;;;;7.87;2.33;;;14.70;63.20;;;;;;5382048;26;20841;-65
2024/04/09 04:18:38;;;;;;;9.53;2.20;;;14.70;63.40;;;;;;5382185;26;20565;-65
2024/04/09 04:21:06;;;;;;;21.40;2.63;;;14.70;63.80;;;;;;5381861;26;20554;-65
2024/04/09 04:23:32;;;;;;;8.47;2.13;;;14.70;64.90;;;;;;5380860;26;20561;-65
2024/04/09 04:26:02;;;;;;;8.70;3.93;;;14.60;65.50;;;;;;5382125;26;20446;-65
2024/04/09 04:28:32;;;;;;;12.07;3.13;;;14.50;66.50;;;;;;5382458;26;20675;-65
2024/04/09 04:30:58;;;;;;;8.37;2.33;;;14.40;66.50;;;;;;5381979;26;20443;-65
2024/04/09 04:33:24;;;;;;;6.00;2.23;;;14.30;67.10;;;;;;5381877;26;20446;-65
2024/04/09 04:35:51;;;;;;;4.73;1.77;;;14.40;67.80;;;;;;5381835;26;20523;-65
2024/04/09 04:38:17;;;;;;;8.63;2.70;;;14.40;68.40;;;;;;5381756;26;21044;-65
2024/04/09 04:40:46;;;;;;;9.43;3.30;;;14.40;68.70;;;;;;5381396;26;20454;-65
2024/04/09 04:43:16;;;;;;;9.40;3.53;;;14.40;69.10;;;;;;5381682;26;20714;-65
2024/04/09 04:45:44;;;;;;;4.30;2.10;;;14.40;69.10;;;;;;5381652;26;20494;-65
2024/04/09 04:48:11;;;;;;;3.07;1.87;;;14.40;69.40;;;;;;5381572;26;20463;-65
2024/04/09 04:50:37;;;;;;;8.03;2.50;;;14.40;69.40;;;;;;5381244;26;20451;-65
2024/04/09 04:53:03;;;;;;;7.10;2.10;;;14.50;70.20;;;;;;5381661;26;20482;-65
2024/04/09 04:55:31;;;;;;;3.97;2.20;;;14.40;70.90;;;;;;5381426;26;20446;-65
2024/04/09 04:57:57;;;;;;;19.57;4.03;;;14.40;70.70;;;;;;5381440;26;20560;-65
2024/04/09 05:00:23;;;;;;;4.50;1.90;;;14.40;71.20;;;;;;5381151;26;20447;-65
2024/04/09 05:02:49;;;;;;;3.27;1.93;;;14.30;72.70;;;;;;5381734;26;20439;-65
2024/04/09 05:05:15;;;;;;;4.13;3.23;;;14.40;72.70;;;;;;5381719;26;20217;-66
2024/04/09 05:07:42;;;;;;;6.33;1.93;;;14.40;72.90;;;;;;5381308;26;20339;-65
2024/04/09 05:10:13;;;;;;;3.30;2.17;;;14.50;73.00;;;;;;5381035;26;21065;-65
2024/04/09 05:12:40;;;;;;;3.97;1.33;;;14.40;73.30;;;;;;5381454;26;20958;-65
2024/04/09 05:15:08;;;;;;;5.40;2.70;;;14.40;74.20;;;;;;5379445;26;20437;-65
2024/04/09 05:17:34;;;;;;;9.10;2.33;;;14.30;74.40;;;;;;5381088;26;20471;-65
2024/04/09 05:20:03;;;;;;;4.90;2.23;;;14.30;75.10;;;;;;5380788;26;20450;-65
2024/04/09 05:22:29;;;;;;;6.93;2.10;;;14.40;75.50;;;;;;5381092;26;21120;-65
2024/04/09 05:24:55;;;;;;;7.70;2.70;;;14.10;75.30;;;;;;5381197;26;20449;-65
2024/04/09 05:27:21;;;;;;;15.97;4.40;;;14.60;75.80;;;;;;5381009;26;20466;-65
2024/04/09 05:29:47;;;;;;;3.90;1.97;;;14.70;76.10;;;;;;5380638;26;20262;-65
2024/04/09 05:32:15;;;;;;;9.07;2.70;;;14.70;76.60;;;;;;5381061;26;21018;-65
2024/04/09 05:34:40;;;;;;;8.53;4.20;;;14.70;77.50;;;;;;5380780;26;20518;-65
2024/04/09 05:37:06;;;;;;;3.90;2.33;;;14.70;78.20;;;;;;5380944;26;20510;-65
2024/04/09 05:39:32;;;;;;;4.03;1.63;;;14.70;78.80;;;;;;5380533;26;20225;-65
2024/04/09 05:41:57;;;;;;;4.00;1.60;;;14.70;79.40;;;;;;5380998;26;20255;-65
2024/04/09 05:44:23;;;;;;;7.50;2.90;;;14.70;80.10;;;;;;5380887;26;20256;-65
2024/04/09 05:46:49;;;;;;;12.40;2.60;;;14.70;80.80;;;;;;5380639;26;20270;-65
2024/04/09 05:49:17;;;;;;;4.93;1.60;;;14.70;81.60;;;;;;5380764;26;20447;-65
2024/04/09 05:51:43;;;;;;;8.20;2.20;;;14.60;83.90;;;;;;5380470;26;20217;-65
2024/04/09 05:54:09;;;;;;;6.27;2.30;;;14.60;84.10;;;;;;5380741;26;20483;-65
2024/04/09 05:56:35;;;;;;;2.90;1.90;;;14.70;83.80;;;;;;5380792;26;20814;-65
2024/04/09 05:59:00;;;;;;;7.13;2.33;;;14.80;83.90;;;;;;5380762;26;20258;-65
2024/04/09 06:01:26;;;;;;;6.63;2.00;;;14.80;84.50;;;;;;5380528;26;20277;-65
2024/04/09 06:03:52;;;;;;;2.13;1.20;;;14.70;85.50;;;;;;5380719;26;20270;-65
2024/04/09 06:06:17;;;;;;;3.77;1.40;;;14.50;87.30;;;;;;5380487;26;20321;-65
2024/04/09 06:08:43;;;;;;;2.40;1.50;;;14.10;89.50;;;;;;5380398;26;20213;-65
2024/04/09 06:11:08;;;;;;;0.97;0.73;;;13.60;90.90;;;;;;5380243;26;20266;-65
2024/04/09 06:13:34;;;;;;;1.40;0.80;;;13.30;91.90;;;;;;5380609;26;20212;-65
2024/04/09 06:16:00;;;;;;;1.77;0.60;;;13.00;92.20;;;;;;5380443;26;20615;-65
2024/04/09 06:18:25;;;;;;;0.90;0.50;;;12.70;91.70;;;;;;5380288;26;20580;-65
2024/04/09 06:20:51;;;;;;;1.27;0.60;;;12.40;91.90;;;;;;5379926;26;20571;-65
2024/04/09 06:23:17;;;;;;;2.23;0.57;;;11.90;92.20;;;;;;5380439;26;20216;-65
2024/04/09 06:25:52;;;;;;;0.40;0.40;;;11.70;92.20;;;;;;5380308;26;20223;-65
2024/04/09 06:28:18;;;;;;;0.40;0.40;;;11.50;92.30;;;;;;5380339;26;20765;-65
2024/04/09 06:30:43;;;;;;;0.57;0.40;;;11.50;92.30;;;;;;5380212;26;20442;-65
2024/04/09 06:33:09;;;;;;;1.07;0.37;;;11.40;92.40;;;;;;5380208;26;20407;-65
2024/04/09 06:35:35;;;;;;;0.40;0.40;;;11.30;92.20;;;;;;5380081;26;20250;-65
2024/04/09 06:38:01;;;;;;;0.90;0.50;;;11.10;92.10;;;;;;5380004;26;20240;-65
2024/04/09 06:40:26;;;;;;;0.77;0.40;;;11.10;92.10;;;;;;5379607;26;20301;-65
2024/04/09 06:42:52;;;;;;;0.90;0.73;;;11.00;92.40;;;;;;5380110;26;20318;-65
2024/04/09 06:45:18;;;;;;;0.33;0.33;;;10.90;93.00;;;;;;5379741;26;20216;-65
2024/04/09 06:47:43;;;;;;;0.40;0.40;;;10.70;93.60;;;;;;5379449;26;20283;-65
2024/04/09 06:50:10;;;;;;;0.50;0.40;;;10.60;93.90;;;;;;5379478;26;20499;-65
2024/04/09 06:52:36;;;;;;;0.43;0.40;;;10.60;93.60;;;;;;5379996;26;20342;-65
2024/04/09 06:55:02;;;;;;;0.40;0.40;;;10.40;94.40;;;;;;5379979;26;20224;-65
2024/04/09 06:57:30;;;;;;;0.45;0.45;;;10.50;95.00;;;;;;5380136;26;20233;-65
2024/04/09 06:59:55;;;;;;;0.40;0.40;;;10.40;94.90;;;;;;5379725;26;20549;-65
2024/04/09 07:02:21;;;;;;;0.60;0.50;;;10.40;95.10;;;;;;5379668;26;20254;-65
2024/04/09 07:04:47;;;;;;;0.60;0.50;;;10.30;95.10;;;;;;5379656;26;20217;-65
2024/04/09 07:07:13;;;;;;;2.55;0.70;;;10.40;95.20;;;;;;5379560;26;20232;-65
2024/04/09 07:09:38;;;;;;;0.50;0.50;;;10.40;95.50;;;;;;5379133;26;20255;-65
2024/04/09 07:12:04;;;;;;;0.40;0.40;;;10.40;95.10;;;;;;5379658;26;20216;-65
2024/04/09 07:14:30;;;;;;;1.23;0.50;;;10.30;95.10;;;;;;5379489;26;20216;-66
2024/04/09 07:16:56;;;;;;;1.87;0.50;;;10.10;95.20;;;;;;5379329;26;20458;-65
2024/04/09 07:19:21;;;;;;;0.43;0.43;;;10.20;95.20;;;;;;5379161;26;20259;-65
2024/04/09 07:21:48;;;;;;;0.80;0.50;;;10.20;95.20;;;;;;5379259;26;20562;-65
2024/04/09 07:24:14;;;;;;;1.10;0.50;;;10.30;95.20;;;;;;5379291;26;20556;-65
2024/04/09 07:26:40;;;;;;;0.30;0.30;;;10.40;94.60;;;;;;5379284;26;20676;-65
2024/04/09 07:29:05;;;;;;;0.50;0.50;;;10.20;94.00;;;;;;5379353;26;20220;-65
2024/04/09 07:31:31;;;;;;;0.40;0.40;;;10.10;94.00;;;;;;5379219;26;20596;-65
2024/04/09 07:33:57;;;;;;;0.40;0.40;;;10.10;94.10;;;;;;5379170;26;20319;-65
2024/04/09 07:36:22;;;;;;;0.40;0.40;;;10.10;94.40;;;;;;5378941;26;20250;-65
2024/04/09 07:38:48;;;;;;;1.07;0.90;;;10.10;94.00;;;;;;5379045;26;20208;-65
2024/04/09 07:41:14;;;;;;;0.83;0.67;;;10.00;94.10;;;;;;5378966;26;20224;-65
2024/04/09 07:43:39;;;;;;;0.40;0.40;;;9.90;95.40;;;;;;5379296;26;20263;-65
2024/04/09 07:46:05;;;;;;;1.27;0.47;;;9.90;95.20;;;;;;5379028;26;20443;-65
2024/04/09 07:48:31;;;;;;;0.70;0.50;;;10.00;94.50;;;;;;5379010;26;20258;-65
2024/04/09 07:50:56;;;;;;;0.50;0.40;;;10.00;94.40;;;;;;5378574;26;20220;-65
2024/04/09 07:53:22;;;;;;;0.40;0.40;;;10.10;94.10;;;;;;5378723;26;20263;-65
2024/04/09 07:55:48;;;;;;;0.40;0.40;;;10.10;94.00;;;;;;5379283;26;20255;-65
2024/04/09 07:58:14;;;;;;;0.70;0.63;;;10.30;93.80;;;;;;5379808;26;20221;-65
2024/04/09 08:00:41;;;;;;;2.17;0.70;;;10.30;93.90;;;;;;5381964;26;20272;-65
2024/04/09 08:03:07;;;;;;;0.60;0.55;;;10.40;93.00;;;;;;5382292;26;20619;-65
2024/04/09 08:05:37;;;;;;;0.40;0.40;;;10.50;92.70;;;;;;5382297;26;20302;-65
2024/04/09 08:08:03;;;;;;;0.40;0.40;;;10.40;92.60;;;;;;5382594;26;20711;-65
2024/04/09 08:10:29;;;;;;;0.55;0.50;;;10.50;92.10;;;;;;5380160;26;20246;-65
2024/04/09 08:12:55;;;;;;;2.37;0.40;;;10.50;91.90;;;;;;5382256;26;20221;-65
2024/04/09 08:15:22;;;;;;;0.50;0.40;;;10.50;93.00;;;;;;5382439;26;20604;-65
2024/04/09 08:17:48;;;;;;;0.73;0.52;;;10.70;91.80;;;;;;5382055;26;20526;-65
2024/04/09 08:20:18;;;;;;;0.40;0.40;;;10.80;90.50;;;;;;5381742;26;20221;-65
2024/04/09 08:22:44;;;;;;;0.40;0.40;;;10.80;90.60;;;;;;5382059;26;20224;-65
2024/04/09 08:25:10;;;;;;;0.50;0.50;;;10.60;90.60;;;;;;5382098;26;20212;-65
2024/04/09 08:27:41;;;;;;;0.53;0.40;;;10.30;90.90;;;;;;5381912;26;20275;-65
2024/04/09 08:30:12;;;;;;;0.95;0.50;;;10.20;91.10;;;;;;5381692;26;20259;-65
2024/04/09 08:32:38;;;;;;;0.50;0.50;;;10.30;91.10;;;;;;5381960;26;20326;-65
2024/04/09 08:35:04;;;;;;;0.40;0.40;;;10.20;91.40;;;;;;5381813;26;20213;-65
2024/04/09 08:37:30;;;;;;;0.40;0.40;;;10.10;91.30;;;;;;5381845;26;20332;-65
2024/04/09 08:39:56;;;;;;;0.40;0.40;;;10.10;91.50;;;;;;5379916;26;20509;-65
2024/04/09 08:42:23;;;;;;;0.40;0.40;;;10.10;91.60;;;;;;5381997;26;20255;-65
2024/04/09 08:44:49;;;;;;;0.40;0.40;;;9.90;92.00;;;;;;5382007;26;20229;-65
2024/04/09 08:47:21;;;;;;;0.45;0.45;;;9.70;92.50;;;;;;5381665;26;20228;-65
2024/04/09 08:49:48;;;;;;;1.08;0.60;;;9.50;94.00;;;;;;5381401;26;20711;-65
2024/04/09 08:52:17;;;;;;;1.27;0.75;;;9.40;93.80;;;;;;5381743;26;20582;-65
2024/04/09 08:54:43;;;;;;;0.40;0.40;;;9.50;94.80;;;;;;5381553;26;20276;-65
2024/04/09 08:57:09;;;;;;;0.50;0.50;;;9.40;94.00;;;;;;5381605;26;20742;-65
2024/04/09 08:59:36;;;;;;;0.60;0.60;;;9.30;95.00;;;;;;5381223;26;20258;-65
2024/04/09 09:02:03;;;;;;;0.50;0.40;;;9.40;95.50;;;;;;5381359;26;20545;-65
2024/04/09 09:04:36;;;;;;;0.30;0.30;;;9.20;95.90;;;;;;5382048;26;20622;-65
2024/04/09 09:07:04;;;;;;;0.40;0.40;;;9.20;95.20;;;;;;5381720;26;20274;-65
2024/04/09 09:09:31;;;;;;;0.40;0.40;;;9.10;94.90;;;;;;5380729;26;20217;-65
2024/04/09 09:12:02;;;;;;;0.38;0.38;;;9.00;95.60;;;;;;5381477;26;20223;-65
2024/04/09 09:14:27;;;;;;;0.40;0.40;;;8.90;95.90;;;;;;5381270;26;20221;-65
2024/04/09 09:17:02;;;;;;;0.50;0.50;;;8.70;95.40;;;;;;5381528;26;20553;-65
2024/04/09 09:19:31;;;;;;;0.40;0.40;;;8.50;95.80;;;;;;5381533;26;20224;-65
2024/04/09 09:22:04;;;;;;;0.30;0.30;;;8.50;96.70;;;;;;5381205;26;20321;-65
2024/04/09 09:24:30;;;;;;;1.67;0.75;;;8.60;96.60;;;;;;5381304;26;20266;-65
2024/04/09 09:27:00;;;;;;;0.77;0.50;;;8.70;97.10;;;;;;5381175;26;20282;-65
2024/04/09 09:29:26;;;;;;;0.52;0.50;;;8.80;96.90;;;;;;5381305;26;20598;-65
2024/04/09 09:31:52;;;;;;;0.40;0.40;;;8.80;96.90;;;;;;5380856;26;20607;-65
2024/04/09 09:34:21;;;;;;;0.37;0.37;;;8.80;96.80;;;;;;5381096;26;20227;-65
2024/04/09 09:36:52;;;;;;;0.40;0.40;;;8.70;96.20;;;;;;5381030;26;20385;-65
2024/04/09 09:39:17;;;;;;;0.40;0.40;;;8.50;95.80;;;;;;5380903;26;20617;-65
2024/04/09 09:41:44;;;;;;;0.40;0.40;;;8.60;96.70;;;;;;5380676;26;20216;-65
2024/04/09 09:44:11;;;;;;;0.30;0.30;;;8.60;96.50;;;;;;5380990;26;20324;-65
2024/04/09 09:46:37;;;;;;;1.45;1.10;;;8.50;96.10;;;;;;5380877;26;20228;-65
2024/04/09 09:49:04;;;;;;;1.35;0.70;;;8.50;96.20;;;;;;5380835;26;20303;-65
2024/04/09 09:51:30;;;;;;;0.63;0.43;;;8.50;96.60;;;;;;5380713;26;20219;-65
2024/04/09 09:53:56;;;;;;;0.90;0.40;;;8.30;96.10;;;;;;5380949;26;20324;-65
2024/04/09 09:56:25;;;;;;;0.40;0.35;;;8.30;96.50;;;;;;5380463;26;20446;-65
2024/04/09 09:58:53;;;;;;;1.20;0.95;;;8.30;96.50;;;;;;5380686;26;20227;-65
2024/04/09 10:01:19;;;;;;;0.40;0.40;;;8.00;96.00;;;;;;5380453;26;20768;-65
2024/04/09 10:03:45;;;;;;;0.40;0.40;;;8.00;96.50;;;;;;5380742;26;20223;-65
2024/04/09 10:06:11;;;;;;;1.03;0.40;;;8.00;96.90;;;;;;5380587;26;20294;-65
2024/04/09 10:08:44;;;;;;;0.43;0.43;;;7.90;97.60;;;;;;5380673;26;20446;-65
2024/04/09 10:11:11;;;;;;;0.40;0.40;;;7.70;96.90;;;;;;5380462;26;20223;-65
2024/04/09 10:13:48;;;;;;;0.40;0.30;;;7.80;98.20;;;;;;5380891;26;20258;-65
2024/04/09 10:16:18;;;;;;;0.93;0.50;;;8.00;98.70;;;;;;5380301;26;20259;-65
2024/04/09 10:18:46;;;;;;;0.50;0.50;;;8.10;98.50;;;;;;5380711;26;20219;-65
2024/04/09 10:21:15;;;;;;;0.30;0.30;;;8.00;97.70;;;;;;5378932;26;20224;-65
2024/04/09 10:23:43;;;;;;;0.40;0.40;;;8.10;97.70;;;;;;5380474;26;20266;-65
2024/04/09 10:26:09;;;;;;;0.40;0.40;;;8.10;97.30;;;;;;5380425;26;20220;-65
2024/04/09 10:28:35;;;;;;;0.80;0.70;;;8.30;97.40;;;;;;5380437;26;20294;-65
2024/04/09 10:31:09;;;;;;;0.30;0.30;;;8.10;97.20;;;;;;5379868;26;20328;-65
2024/04/09 10:33:39;;;;;;;0.30;0.30;;;8.00;97.40;;;;;;5380509;26;20223;-65
2024/04/09 10:36:06;;;;;;;0.68;0.65;;;8.10;97.30;;;;;;5379926;26;20282;-65
2024/04/09 10:38:33;;;;;;;0.80;0.80;;;8.20;96.70;;;;;;5380172;26;20258;-65
2024/04/09 10:41:00;;;;;;;0.55;0.50;;;8.40;97.70;;;;;;5379678;26;20266;-65
2024/04/09 10:43:28;;;;;;;0.40;0.40;;;8.40;97.10;;;;;;5380200;26;20551;-65
2024/04/09 10:45:54;;;;;;;0.40;0.40;;;8.50;97.30;;;;;;5379972;26;20267;-65
2024/04/09 10:48:21;;;;;;;0.40;0.40;;;8.60;97.30;;;;;;5379958;26;20227;-65
2024/04/09 10:50:47;;;;;;;0.45;0.45;;;8.80;96.70;;;;;;5379896;26;20262;-65
2024/04/09 10:53:14;;;;;;;0.30;0.30;;;9.10;96.20;;;;;;5380008;26;20217;-65
2024/04/09 10:55:40;;;;;;;1.05;0.40;;;9.20;95.50;;;;;;5379997;26;20361;-65
2024/04/09 10:58:05;;;;;;;0.53;0.40;;;9.30;95.10;;;;;;5379916;26;20224;-65
2024/04/09 11:00:31;;;;;;;0.30;0.30;;;9.30;95.40;;;;;;5379489;26;20590;-65
2024/04/09 11:02:57;;;;;;;0.33;0.33;;;9.30;95.60;;;;;;5379721;26;20212;-65
2024/04/09 11:05:23;;;;;;;0.40;0.40;;;9.40;96.10;;;;;;5379874;26;20267;-65
2024/04/09 11:07:50;;;;;;;0.60;0.40;;;9.50;95.60;;;;;;5379647;26;20606;-65
2024/04/09 11:10:22;;;;;;;0.40;0.40;;;9.50;95.40;;;;;;5379363;26;20213;-65
2024/04/09 11:12:54;;;;;;;0.43;0.43;;;9.50;96.00;;;;;;5379652;26;20705;-65
2024/04/09 11:15:21;;;;;;;0.68;0.40;;;9.50;95.20;;;;;;5380121;26;20216;-65
2024/04/09 11:17:47;;;;;;;0.30;0.30;;;9.40;94.70;;;;;;5379812;26;20630;-65
2024/04/09 11:20:14;;;;;;;0.30;0.30;;;9.40;95.10;;;;;;5379777;26;20760;-65
2024/04/09 11:22:46;;;;;;;0.30;0.30;;;9.20;94.60;;;;;;5379851;26;20216;-65
2024/04/09 11:25:19;;;;;;;0.40;0.40;;;9.30;95.50;;;;;;5379835;26;20213;-65
2024/04/09 11:27:48;;;;;;;0.60;0.50;;;9.30;94.80;;;;;;5379263;26;20224;-65
2024/04/09 11:30:38;;;;;;;0.40;0.40;;;9.30;94.40;;;;;;5378982;26;20216;-65
2024/04/09 11:33:04;;;;;;;0.30;0.30;;;9.10;94.40;;;;;;5381563;26;20316;-65
2024/04/09 11:35:31;;;;;;;1.83;0.40;;;9.20;94.80;;;;;;5382813;26;20216;-65
2024/04/09 11:37:58;;;;;;;0.30;0.30;;;9.30;94.10;;;;;;5382542;26;20511;-65
2024/04/09 11:40:25;;;;;;;0.40;0.40;;;9.40;94.50;;;;;;5382329;26;20216;-65
2024/04/09 11:42:55;;;;;;;0.50;0.40;;;9.60;94.40;;;;;;5382433;26;20221;-65
2024/04/09 11:45:22;;;;;;;0.30;0.30;;;9.70;93.90;;;;;;5382717;26;20217;-65
2024/04/09 11:47:48;;;;;;;0.40;0.40;;;9.90;93.30;;;;;;5382666;26;20634;-65
2024/04/09 11:50:14;;;;;;;0.40;0.40;;;10.00;93.10;;;;;;5382263;26;20268;-65
2024/04/09 11:52:41;;;;;;;0.40;0.40;;;9.90;93.30;;;;;;5382563;26;20243;-65
2024/04/09 11:55:08;;;;;;;0.50;0.40;;;9.90;93.60;;;;;;5382284;26;20326;-65
2024/04/09 11:57:34;;;;;;;2.05;0.50;;;9.90;92.70;;;;;;5382281;26;20232;-65
2024/04/09 12:00:00;;;;;;;0.45;0.45;;;9.90;93.50;;;;;;5382115;26;20217;-65
2024/04/09 12:02:26;;;;;;;1.37;0.50;;;9.80;93.30;;;;;;5382437;26;20592;-65
2024/04/09 12:04:52;;;;;;;0.40;0.40;;;9.80;93.10;;;;;;5382454;26;20582;-65
2024/04/09 12:07:17;;;;;;;0.50;0.50;;;9.50;93.30;;;;;;5382267;26;20455;-65
2024/04/09 12:09:43;;;;;;;0.40;0.40;;;9.60;93.90;;;;;;5381782;26;20625;-65
2024/04/09 12:12:09;;;;;;;0.40;0.40;;;9.60;92.90;;;;;;5382290;26;20606;-65
2024/04/09 12:14:36;;;;;;;0.40;0.40;;;9.40;93.50;;;;;;5382210;26;20258;-65
2024/04/09 12:17:03;;;;;;;1.40;0.55;;;9.10;93.40;;;;;;5382263;26;20233;-65
2024/04/09 12:19:28;;;;;;;0.40;0.40;;;9.10;93.30;;;;;;5382062;26;20260;-65
2024/04/09 12:21:54;;;;;;;0.40;0.40;;;8.80;93.80;;;;;;5382467;26;20726;-65
2024/04/09 12:24:20;;;;;;;0.40;0.40;;;8.80;94.50;;;;;;5382068;26;20309;-65
2024/04/09 12:26:45;;;;;;;0.50;0.50;;;9.00;94.80;;;;;;5381980;26;20228;-65
2024/04/09 12:29:11;;;;;;;2.07;0.70;;;9.10;93.90;;;;;;5382370;26;20366;-65
2024/04/09 12:31:37;;;;;;;0.47;0.47;;;9.10;93.90;;;;;;5381901;26;20333;-65
2024/04/09 12:34:04;;;;;;;0.90;0.60;;;9.20;94.20;;;;;;5382046;26;20553;-65
2024/04/09 12:36:31;;;;;;;0.82;0.77;;;9.20;93.50;;;;;;5381657;26;20470;-65
2024/04/09 12:38:57;;;;;;;0.60;0.60;;;9.10;93.30;;;;;;5381788;26;20216;-65
2024/04/09 12:41:22;;;;;;;0.93;0.80;;;9.00;94.40;;;;;;5381616;26;20261;-65
2024/04/09 12:43:48;;;;;;;2.13;0.70;;;9.00;93.60;;;;;;5380985;26;20259;-65
2024/04/09 12:46:14;;;;;;;0.67;0.67;;;9.10;94.20;;;;;;5381743;26;20228;-65
2024/04/09 12:48:39;;;;;;;1.30;0.70;;;8.80;93.10;;;;;;5381781;26;20246;-65